Aviation Digital Data Service (ADDS)

Output produced by METARs form (1653 UTC 16 June 2019)
found at http://www.aviationweather.gov/metar/data/
 
KCAE 161437Z 1615/1712 22008KT P6SM SCT060 
     FM170100 00000KT P6SM SKC
       
KCAK 161126Z 1612/1712 25008KT 5SM BR OVC008 
     TEMPO 1612/1614 2SM -SHRA BR BKN004 
     FM161500 25005KT 4SM -SHRA BKN008 OVC015 
     FM161900 24005KT P6SM VCSH BKN025 OVC035 
     FM170400 VRB02KT P6SM OVC035
       
KCAR 161415Z 1614/1712 26009KT P6SM SCT035
       
TAF KCBM 161500Z 1615/1721 25009KT 9999 FEW025 FEW150 SCT210 QNH2997INS 
     BECMG 1623/1624 18006KT 9999 FEW045 SCT065 QNH2989INS 
     BECMG 1716/1717 18007KT 8000 -SHRA FEW050 SCT080 BKN110 QNH2995INS 
     TEMPO 1717/1721 18010G15KT 6000 -TSRA FEW050 BKN080CB TX34/1621Z TN24/1710Z
       
KCDC 161614Z 1616/1712 24013KT P6SM -SHRA SCT050 BKN070 
     FM161700 24012KT P6SM VCSH SCT060 BKN090 
     FM170300 19006KT P6SM VCSH SCT080
       
KCDR 161125Z 1612/1712 VRB05KT P6SM VCSH OVC110 
     FM161500 30005KT P6SM VCTS BKN050CB 
     FM162000 12007KT P6SM SCT050 BKN100
       
KCDS 161609Z 1616/1712 33005KT P6SM VCSH SCT060 BKN100
       
KCEC 161120Z 1612/1712 33005KT 2SM BR OVC002 
     FM161700 31010KT P6SM BKN003 
     FM162000 32016G24KT P6SM SCT003 
     FM170000 33018G28KT 6SM HZ SKC 
     FM170400 35012KT P6SM SCT006
       
TAF AMD KCEF 161500Z 1615/1716 20012KT 8000 -RA BKN012 OVC050 540305 QNH2986INS 
     TEMPO 1615/1618 SCT015 OVC070 
     BECMG 1617/1618 20012KT 8000 -RA BKN020 OVC100 540305 QNH2982INS 
     BECMG 1701/1702 36007KT 9999 NSW SCT015 OVC120 QNH2983INS 
     BECMG 1709/1710 30009KT 9999 FEW050 SCT120 QNH2989INS TX23/1618Z TN17/1710Z
       
KCGI 161517Z 1615/1712 24012G20KT P6SM BKN021 
     FM161700 22012G20KT P6SM VCTS SCT025CB BKN050 
     FM170000 22008KT P6SM BKN040 
     FM170500 VRB03KT P6SM SCT040 BKN070
       
KCHA 161125Z 1612/1712 21007KT P6SM BKN070 
     FM161500 21010KT P6SM SCT050 BKN150 
     FM162000 20011KT P6SM SCT060 SCT150 BKN250 
     FM170000 VRB02KT P6SM FEW070 BKN250
       
KCHO 161127Z 1612/1712 19010KT P6SM SCT130 
     FM161500 22009KT P6SM SCT050 
     FM162100 22007KT P6SM VCTS BKN050CB 
     FM170100 22006KT P6SM BKN130 
     FM170500 23004KT P6SM SCT110
       
KCHS 161120Z 1612/1712 19009KT P6SM SCT040
       
KCID 161629Z 1616/1712 33007KT P6SM OVC010 
     FM161800 02006KT P6SM OVC010 
     FM170000 05007KT P6SM SCT040
       
KCKB 161429Z 1614/1712 21011KT 2SM -RA OVC035 
     FM161500 21010KT 4SM -RA OVC035 
     FM161600 21010KT P6SM OVC040 
     FM162200 24010KT P6SM -SHRA VCTS OVC035CB 
     FM170200 21004KT P6SM BKN120
       
KCKV 161129Z 1612/1712 18004KT P6SM FEW050 
     FM161400 22012G20KT P6SM SCT050 BKN100 
     FM162100 22010KT P6SM VCTS BKN050CB 
     FM170300 20004KT P6SM BKN100
       
KCLE 161456Z 1615/1718 VRB03KT 6SM -SHRA BR SCT008 OVC015 
     TEMPO 1615/1617 4SM -SHRA BR BKN008 
     FM161900 03006KT P6SM SCT015 OVC025 
     FM170600 VRB02KT P6SM SCT015 BKN035
       
KCLL 161500Z 1615/1712 19009KT P6SM VCSH SCT015 BKN025 OVC040 
     FM161800 17011G19KT P6SM VCTS SCT017CB BKN040 
     TEMPO 1618/1621 4SM SHRA BR BKN017 
     FM162100 18012G21KT P6SM VCSH SCT018 BKN060 
     FM170100 17009KT P6SM FEW025 SCT250 
     FM170900 16007G17KT P6SM VCSH SCT015 BKN250
       
KCLM 161433Z 1615/1712 28008KT P6SM SCT008 
     TEMPO 1615/1618 BKN007 
     FM161800 28008KT P6SM SCT200 
     FM162300 28012G18KT P6SM SCT200 
     FM170500 28008KT P6SM SCT200
       
KCLT 161554Z 1616/1718 23010G17KT P6SM FEW029 BKN250 
     FM170100 20005KT P6SM FEW180
       
KCMA 161557Z 1616/1712 VRB05KT 6SM BR OVC010 
     FM161700 24006KT P6SM OVC015 
     FM162200 26010KT P6SM SCT021 
     FM170430 VRB03KT P6SM BKN010 
     FM170900 VRB03KT P6SM OVC008
       
KCMH 161603Z 1616/1712 20010KT P6SM -SHRA OVC015 
     FM161800 22008KT P6SM VCSH OVC025 
     FM161900 24010KT P6SM BKN035 
     FM170100 23004KT P6SM BKN050
       
KCMI 161151Z 1612/1712 23006KT P6SM SCT020 
     TEMPO 1612/1614 BKN030 
     FM161600 23008KT P6SM VCTS OVC035CB 
     FM170600 04006KT P6SM OVC050 
     FM170700 03006KT P6SM OVC022
       
KCMX 161133Z 1612/1712 09008KT P6SM BKN120 
     FM170200 VRB04KT P6SM SCT100
       
KCNM 161138Z 1612/1712 33014KT P6SM SCT250 
     FM161800 02011KT P6SM SCT250 
     FM170000 10006KT P6SM FEW250
       
KCNU 161120Z 1612/1712 VRB04KT P6SM -RA OVC100 
     FM161700 36006KT P6SM OVC060 
     FM170300 VRB05KT P6SM OVC100
       
KCNY 161139Z 1612/1712 VRB04KT P6SM FEW100 FEW250 
     FM161800 28012G18KT P6SM FEW120 SCT250 
     FM162300 28017G26KT P6SM SCT100 BKN250 
     FM170400 26006KT P6SM SCT100 BKN180
       
KCOD 161123Z 1612/1712 VRB05KT P6SM SCT100 
     FM161600 06008KT P6SM VCSH SCT050 BKN070 
     FM161900 03010G16KT P6SM VCTS SCT060 BKN080CB 
     FM170100 32008KT P6SM BKN100 
     FM170500 VRB04KT P6SM SCT120 AMD LTD TO CLD VIS AND WIND
       
KCOE 161120Z 1612/1712 09005KT P6SM SCT120 
     FM161900 24006KT P6SM FEW070 SCT120 
     FM170300 14005KT P6SM SCT070 BKN120 
     FM170600 10006KT P6SM BKN120 BKN250
       
TAF KCOF 161000Z 1610/1716 VRB06KT 9999 VCSH SCT020 BKN200 QNH2999INS 
     BECMG 1616/1617 12010KT 9999 -SHRA VCTS SCT030CB BKN100 OVC200 QNH2997INS 
     TEMPO 1617/1623 BKN020 
     BECMG 1700/1701 15008KT 9999 VCSH FEW030 BKN120 QNH2999INS 
     BECMG 1707/1708 15007KT 9999 VCSH SCT015 BKN100 QNH3000INS TX29/1617Z
TN25/1708Z
       
KCON 161120Z 1612/1712 19005KT P6SM BKN090 
     FM161300 21005KT 5SM -RA BKN030 OVC050 
     FM162100 VRB03KT P6SM BKN050 
     FM170200 00000KT 6SM BR OVC015
       
KCOS 161125Z 1612/1712 VRB06KT P6SM FEW150 BKN200 
     FM161700 15014KT P6SM SCT060 BKN120 
     FM170100 VRB06KT P6SM VCTS SCT040CB BKN060 
     FM170600 03006KT P6SM SCT060 BKN200
       
KCOT 161122Z 1612/1712 16008KT P6SM SCT025 BKN250 
     TEMPO 1612/1615 BKN025 
     FM161500 16012G18KT P6SM SCT030 BKN250 
     FM162100 13015G22KT P6SM SCT050 BKN250 
     FM170000 14010KT P6SM VCSH SCT020 BKN250 
     FM170500 13007KT P6SM BKN025
       
KCOU 161356Z 1614/1712 23010G17KT P6SM VCSH SCT016 BKN120 
     FM161500 24006KT P6SM BKN120 
     FM162100 VRB04KT P6SM VCTS SCT050CB BKN120 
     FM170200 VRB03KT P6SM OVC040
       
KCPS 161400Z 1614/1712 24007KT P6SM SCT035 OVC120 
     TEMPO 1614/1615 BKN025 
     FM162100 27006KT P6SM VCTS SCT050CB BKN120 
     FM170300 VRB04KT P6SM SCT040 BKN120 
     FM170900 VRB04KT P6SM BKN030
       
KCRE 161140Z 1612/1712 21004KT P6SM SCT020 SCT200 
     FM161400 19008KT P6SM SCT050 
     FM161800 19012KT P6SM FEW050 
     FM170400 22006KT P6SM SKC
       
KCRG 161610Z 1616/1712 10011KT P6SM VCTS SCT035CB BKN100 BKN200 
     FM162300 13008KT P6SM SCT030 BKN100 BKN200
       
KCRP 161122Z 1612/1712 16008KT P6SM SCT025 
     TEMPO 1612/1614 BKN025 
     FM161400 17015G20KT P6SM VCSH BKN035 
     FM162000 14020G25KT P6SM SCT035 
     FM170200 15012KT P6SM SCT025 
     FM170800 15008KT P6SM VCSH SCT025 
     TEMPO 1709/1712 BKN025
       
KCRQ 161120Z 1612/1712 VRB05KT P6SM OVC011 
     FM161900 24009KT P6SM BKN018 
     FM170200 VRB05KT P6SM OVC011
       
KCRW 161436Z 1615/1712 23010G20KT P6SM VCSH OVC040 
     TEMPO 1615/1617 4SM -SHRA BR OVC025 
     FM162200 24011G18KT 5SM -SHRA VCTS OVC040CB 
     FM170200 23006KT P6SM SCT040 BKN150
       
KCSG 161134Z 1612/1712 VRB03KT P6SM FEW200 
     FM161500 19005KT P6SM FEW040 
     FM161800 21006KT P6SM SCT050 
     FM162300 15005KT P6SM FEW050 
     FM170100 VRB03KT P6SM BKN250
       
KCSM 161123Z 1612/1712 30008KT P6SM OVC250 
     FM161400 35010KT P6SM BKN040 
     FM170000 35006KT P6SM OVC100 
     PROB30 1700/1706 TSRA OVC030CB 
     FM170600 35007KT P6SM OVC015
       
KCSV 161248Z 1613/1712 21008KT P6SM VCTS BKN050CB 
     FM161600 22009G16KT P6SM SCT050 BKN100 
     FM170000 21003KT P6SM FEW050 BKN250
       
KCTB 161120Z 1612/1712 VRB04KT P6SM VCSH BKN060 OVC090 
     FM161700 36009KT P6SM VCSH FEW060 BKN090 
     FM170300 VRB06KT P6SM FEW070 FEW100
       
KCUB 161437Z 1615/1712 22008KT P6SM SCT060 
     FM170100 00000KT P6SM SKC
       
KCVG 161601Z 1616/1718 20010KT P6SM VCTS OVC050CB 
     FM161900 22008KT P6SM VCTS BKN040CB OVC120 
     FM170200 21003KT P6SM BKN080 
     FM171500 22008KT P6SM BKN040
       
TAF KCVS 161000Z 1610/1716 02008KT 9999 BKN100 QNH3001INS 
     BECMG 1616/1617 01010KT 9999 FEW015 SCT040 QNH2995INS 
     BECMG 1621/1622 33012KT 9999 -SHRA VCTS BKN060CB QNH2994INS 
     BECMG 1700/1701 10010KT 9999 NSW SCT050 QNH2997INS 
     BECMG 1707/1708 12008KT 9999 -SHRA BKN020 QNH2998INS TX29/1621Z TN15/1712Z
       
KCWA 161133Z 1612/1712 06007KT 6SM BR VCSH OVC040 
     FM161500 08008KT P6SM VCSH SCT025 OVC035 
     FM161700 09006KT P6SM OVC040 
     FM170200 12002KT P6SM SCT120 
     FM170600 VRB03KT P6SM SCT150
       
KCXO 161500Z 1615/1712 19011KT P6SM VCSH SCT025 BKN035 
     FM161800 18012KT P6SM VCTS SCT025CB BKN070 
     TEMPO 1618/1621 4SM SHRA BR BKN025 
     FM162100 17010G19KT P6SM VCSH SCT025 BKN100 
     FM170200 15006KT P6SM FEW025 SCT100
       
KCXP 161120Z 1612/1712 VRB03KT P6SM SCT200 
     FM162300 29009KT P6SM VCSH SCT070 SCT140 
     FM170300 VRB04KT P6SM SCT140
       
KCYS 161652Z 1617/1712 03007KT P6SM VCSH SCT010 OVC080 
     FM162100 17010KT P6SM -TSRA BKN050CB BKN100 
     FM170000 10009KT P6SM VCSH SCT040 BKN100 
     FM170300 16005KT P6SM BKN100